Time;durP1;ratioP1;P1;durP2;ratioP2;P2;SDS_P1;SDS_P2;PMS_P1;PMS_P2;Temp;Humidity;BMP_temperature;BMP_pressure;BME280_temperature;BME280_humidity;BME280_pressure;Samples;Min_cycle;Max_cycle;Signal;HPM_P1;HPM_P2
2021/04/05 00:00:39;;;;;;;5.35;1.83;;;38.10;10.60;;;;;;5073801;28;20129;-55
2021/04/05 00:03:07;;;;;;;2.67;1.30;;;38.50;16.40;;;;;;5091402;28;20498;-51
2021/04/05 00:05:37;;;;;;;2.53;1.40;;;38.10;16.90;;;;;;5091345;28;20537;-54
2021/04/05 00:08:05;;;;;;;3.53;1.20;;;38.30;7.90;;;;;;5091823;28;20118;-59
2021/04/05 00:10:34;;;;;;;4.88;1.40;;;38.20;8.60;;;;;;5093960;28;20064;-56
2021/04/05 00:13:06;;;;;;;5.78;1.60;;;37.80;21.30;;;;;;5074910;28;20556;-56
2021/04/05 00:15:33;;;;;;;2.85;1.60;;;37.90;13.90;;;;;;5093482;28;20080;-57
2021/04/05 00:17:59;;;;;;;5.97;1.63;;;37.90;15.20;;;;;;5088014;28;20129;-59
2021/04/05 00:20:33;;;;;;;2.17;1.33;;;37.80;10.40;;;;;;5089351;28;20160;-54
2021/04/05 00:23:00;;;;;;;15.50;2.15;;;37.30;11.10;;;;;;5071802;28;20102;-63
2021/04/05 00:25:28;;;;;;;21.10;2.47;;;37.30;9.00;;;;;;5087363;28;20107;-64
2021/04/05 00:27:54;;;;;;;4.05;1.40;;;37.10;8.80;;;;;;5074390;28;20077;-63
2021/04/05 00:30:25;;;;;;;6.95;2.10;;;36.90;8.10;;;;;;5093653;28;20076;-62
2021/04/05 00:32:53;;;;;;;8.45;2.97;;;37.10;9.80;;;;;;5074429;28;20120;-63
2021/04/05 00:35:22;;;;;;;5.75;2.25;;;36.80;9.00;;;;;;5092688;28;20757;-64
2021/04/05 00:37:49;;;;;;;11.25;2.13;;;;;;;;;;5096193;28;20088;-64
2021/04/05 00:40:19;;;;;;;9.02;2.08;;;37.10;21.70;;;;;;5100798;28;20392;-64
2021/04/05 00:42:48;;;;;;;7.13;1.73;;;37.20;9.80;;;;;;5094895;28;20065;-62
2021/04/05 00:45:16;;;;;;;4.63;1.50;;;37.30;8.60;;;;;;5092698;28;20077;-63
2021/04/05 00:47:47;;;;;;;4.93;1.48;;;37.50;7.50;;;;;;5095314;28;20087;-64
2021/04/05 00:50:19;;;;;;;2.90;1.65;;;37.80;8.70;;;;;;5099061;28;20585;-64
2021/04/05 00:52:51;;;;;;;4.82;1.42;;;38.00;9.00;;;;;;5096780;28;20108;-64
2021/04/05 00:55:19;;;;;;;4.00;1.80;;;38.10;7.80;;;;;;5076615;28;20075;-63
2021/04/05 00:57:46;;;;;;;3.95;1.50;;;38.20;8.10;;;;;;5093550;28;20480;-63
2021/04/05 01:00:18;;;;;;;6.80;1.52;;;38.30;9.90;;;;;;5096181;28;20072;-64
2021/04/05 01:02:46;;;;;;;4.72;1.60;;;38.10;9.20;;;;;;5076536;28;20079;-63
2021/04/05 01:05:13;;;;;;;5.50;1.88;;;38.00;8.90;;;;;;5096242;28;20548;-62
2021/04/05 01:07:40;;;;;;;8.80;1.77;;;38.20;8.00;;;;;;5092940;28;20068;-64
2021/04/05 01:10:09;;;;;;;11.32;1.80;;;39.10;8.10;;;;;;5090553;28;20490;-63
2021/04/05 01:12:36;;;;;;;5.32;1.80;;;39.60;8.30;;;;;;5090476;28;20568;-63
2021/04/05 01:15:06;;;;;;;6.78;1.75;;;39.90;7.60;;;;;;5096002;28;20089;-63
2021/04/05 01:17:33;;;;;;;5.68;1.70;;;39.70;7.40;;;;;;5091895;28;20072;-63
2021/04/05 01:20:00;;;;;;;8.55;2.05;;;39.30;7.30;;;;;;5094873;28;20141;-63
2021/04/05 01:22:27;;;;;;;4.82;1.70;;;38.60;7.50;;;;;;5094068;28;20071;-63
2021/04/05 01:24:54;;;;;;;10.68;1.77;;;38.10;8.00;;;;;;5096560;28;20072;-63
2021/04/05 01:27:20;;;;;;;14.80;2.60;;;37.30;9.00;;;;;;5095217;28;20422;-61
2021/04/05 01:29:47;;;;;;;15.07;3.08;;;36.80;9.60;;;;;;5095032;28;20539;-61
2021/04/05 01:32:13;;;;;;;17.42;2.50;;;36.50;10.00;;;;;;5098424;28;20078;-62
2021/04/05 01:34:40;;;;;;;9.63;1.95;;;36.10;10.10;;;;;;5094818;28;20102;-62
2021/04/05 01:37:07;;;;;;;24.77;2.47;;;35.90;10.20;;;;;;5093591;28;20084;-61
2021/04/05 01:39:35;;;;;;;11.85;2.33;;;35.70;10.70;;;;;;5095712;28;20119;-61
2021/04/05 01:42:03;;;;;;;8.27;1.70;;;35.60;10.50;;;;;;5095973;28;20076;-60
2021/04/05 01:44:33;;;;;;;12.15;2.58;;;35.40;10.50;;;;;;5097001;28;20517;-62
2021/04/05 01:47:00;;;;;;;7.75;2.60;;;35.30;10.60;;;;;;5092847;28;20347;-61
2021/04/05 01:49:27;;;;;;;12.07;2.28;;;35.10;10.60;;;;;;5075534;28;20073;-61
2021/04/05 01:51:54;;;;;;;12.38;2.47;;;35.00;10.70;;;;;;5096199;28;20080;-62
2021/04/05 01:54:21;;;;;;;7.40;2.13;;;34.90;10.80;;;;;;5098773;28;20092;-61
2021/04/05 01:56:48;;;;;;;16.23;2.47;;;34.70;10.90;;;;;;5096999;28;20509;-58
2021/04/05 01:59:14;;;;;;;4.00;1.80;;;34.60;11.80;;;;;;5092308;28;20441;-59
2021/04/05 02:01:41;;;;;;;4.63;2.10;;;34.60;11.00;;;;;;5094693;28;21155;-61
2021/04/05 02:04:09;;;;;;;12.85;2.58;;;34.40;10.90;;;;;;5094753;28;20101;-62
2021/04/05 02:06:37;;;;;;;15.35;2.65;;;34.30;10.90;;;;;;5093044;28;20077;-61
2021/04/05 02:09:09;;;;;;;10.27;2.28;;;34.20;11.10;;;;;;5091627;28;20547;-61
2021/04/05 02:11:38;;;;;;;12.77;2.45;;;34.10;11.20;;;;;;5096639;28;20128;-59
2021/04/05 02:14:07;;;;;;;15.05;2.60;;;34.00;11.20;;;;;;5097720;28;20495;-62
2021/04/05 02:16:34;;;;;;;11.70;4.05;;;33.80;11.20;;;;;;5092972;28;20065;-60
2021/04/05 02:19:01;;;;;;;8.18;2.20;;;33.70;11.10;;;;;;5095155;28;20112;-61
2021/04/05 02:21:29;;;;;;;12.90;2.15;;;33.60;11.20;;;;;;5090592;28;20069;-60
2021/04/05 02:24:01;;;;;;;13.07;2.35;;;33.50;11.20;;;;;;5097563;28;21579;-61
2021/04/05 02:26:30;;;;;;;13.63;2.30;;;33.40;11.20;;;;;;5092081;28;20130;-61
2021/04/05 02:28:59;;;;;;;8.95;2.22;;;33.30;11.10;;;;;;5095659;28;20080;-60
2021/04/05 02:31:28;;;;;;;17.48;1.92;;;33.20;11.00;;;;;;5096965;28;20080;-64
2021/04/05 02:33:56;;;;;;;10.88;2.33;;;33.10;11.30;;;;;;5094576;28;20569;-61
2021/04/05 02:36:25;;;;;;;10.77;2.10;;;33.00;11.40;;;;;;5095487;28;20076;-62
2021/04/05 02:38:56;;;;;;;14.73;2.80;;;32.80;11.30;;;;;;5093950;28;20565;-60
2021/04/05 02:41:25;;;;;;;11.98;2.67;;;32.70;11.50;;;;;;5102127;28;20070;-61
2021/04/05 02:43:53;;;;;;;22.00;2.78;;;32.60;11.50;;;;;;5092667;28;20079;-63
2021/04/05 02:46:32;;;;;;;20.13;3.10;;;32.50;11.70;;;;;;5097755;28;20080;-60
2021/04/05 02:49:00;;;;;;;20.13;3.58;;;32.40;11.80;;;;;;5093331;28;20126;-63
2021/04/05 02:51:28;;;;;;;31.73;3.88;;;32.20;12.00;;;;;;5093508;28;20151;-61
2021/04/05 02:54:00;;;;;;;31.73;4.97;;;32.10;12.10;;;;;;5095940;28;20180;-61
2021/04/05 02:56:29;;;;;;;34.17;4.78;;;31.90;12.30;;;;;;5093754;28;20130;-61
2021/04/05 02:58:56;;;;;;;23.20;4.00;;;31.80;12.40;;;;;;5077633;28;20164;-60
2021/04/05 03:01:25;;;;;;;20.92;4.97;;;31.70;12.30;;;;;;5079936;28;20079;-61
2021/04/05 03:03:56;;;;;;;25.08;4.00;;;31.50;12.40;;;;;;5092462;28;20080;-60
2021/04/05 03:06:24;;;;;;;23.52;3.58;;;31.50;12.10;;;;;;5094393;28;20072;-60
2021/04/05 03:08:51;;;;;;;18.50;3.08;;;31.40;12.00;;;;;;5093809;28;20107;-60
2021/04/05 03:11:21;;;;;;;8.30;3.20;;;31.30;11.80;;;;;;5092335;28;20557;-59
2021/04/05 03:13:48;;;;;;;13.98;2.83;;;31.30;11.80;;;;;;5091523;28;20101;-61
2021/04/05 03:16:22;;;;;;;15.35;2.67;;;31.20;11.70;;;;;;5095764;28;20072;-61
2021/04/05 03:18:50;;;;;;;11.45;2.67;;;31.10;11.80;;;;;;5091670;28;20433;-60
2021/04/05 03:21:19;;;;;;;21.88;2.72;;;31.00;12.10;;;;;;5071707;28;20073;-60
2021/04/05 03:23:46;;;;;;;8.70;2.88;;;30.90;12.10;;;;;;5094244;28;20076;-60
2021/04/05 03:26:13;;;;;;;17.88;3.03;;;30.70;12.20;;;;;;5076427;28;20076;-59
2021/04/05 03:28:40;;;;;;;18.00;3.25;;;30.70;12.30;;;;;;5094549;28;21432;-60
2021/04/05 03:31:19;;;;;;;18.73;2.90;;;30.70;12.00;;;;;;5091409;28;20160;-61
2021/04/05 03:34:05;;;;;;;15.77;2.92;;;30.70;12.00;;;;;;5073289;28;20096;-62
2021/04/05 03:36:43;;;;;;;24.83;3.28;;;30.60;11.70;;;;;;5095523;28;20432;-61
2021/04/05 03:39:11;;;;;;;12.48;2.45;;;30.60;11.40;;;;;;5092647;28;20130;-61
2021/04/05 03:41:59;;;;;;;14.75;2.50;;;30.60;11.10;;;;;;5092713;28;20099;-61
2021/04/05 03:44:35;;;;;;;18.13;2.50;;;30.50;11.10;;;;;;5093126;28;20397;-61
2021/04/05 03:47:17;;;;;;;14.68;3.35;;;30.50;11.00;;;;;;5096101;28;20091;-60
2021/04/05 03:50:02;;;;;;;15.73;2.88;;;30.50;11.10;;;;;;5094428;28;20076;-61
2021/04/05 03:52:38;;;;;;;11.93;2.78;;;30.40;11.10;;;;;;5095867;28;20582;-60
2021/04/05 03:55:09;;;;;;;11.23;2.63;;;30.30;11.10;;;;;;5078621;28;20182;-61
2021/04/05 03:57:40;;;;;;;13.18;1.83;;;30.30;11.20;;;;;;5090728;28;20789;-60
2021/04/05 04:00:13;;;;;;;11.75;1.92;;;30.20;11.10;;;;;;5096070;28;20100;-62
2021/04/05 04:02:50;;;;;;;8.52;1.88;;;30.10;11.20;;;;;;5098006;28;20078;-60
2021/04/05 04:05:41;;;;;;;7.90;1.85;;;30.10;10.80;;;;;;5094296;28;20474;-60
2021/04/05 04:08:26;;;;;;;6.15;1.70;;;30.00;10.70;;;;;;5097869;28;20064;-59
2021/04/05 04:10:55;;;;;;;14.40;1.67;;;29.90;10.80;;;;;;5094028;28;20168;-59
2021/04/05 04:13:24;;;;;;;10.55;2.50;;;29.90;10.90;;;;;;5098015;28;20029;-60
2021/04/05 04:15:51;;;;;;;10.48;2.40;;;29.80;28.30;;;;;;5097908;28;20024;-63
2021/04/05 04:18:20;;;;;;;7.93;2.25;;;29.80;11.00;;;;;;5097735;28;20147;-61
2021/04/05 04:20:47;;;;;;;6.00;2.88;;;29.60;11.20;;;;;;5094175;28;20077;-61
2021/04/05 04:23:15;;;;;;;12.50;2.90;;;29.60;11.30;;;;;;5100587;28;20028;-59
2021/04/05 04:25:42;;;;;;;6.65;2.35;;;29.80;11.50;;;;;;5100353;28;20320;-59
2021/04/05 04:28:15;;;;;;;9.05;1.70;;;29.50;11.80;;;;;;5102616;28;20080;-59
2021/04/05 04:30:42;;;;;;;8.65;1.38;;;29.40;11.80;;;;;;5095685;28;20458;-60
2021/04/05 04:33:12;;;;;;;5.40;1.20;;;29.50;11.90;;;;;;5094306;28;20605;-59
2021/04/05 04:35:40;;;;;;;3.08;1.20;;;29.40;11.90;;;;;;5091989;28;20069;-60
2021/04/05 04:38:07;;;;;;;4.80;1.60;;;29.30;12.00;;;;;;5101753;28;20072;-60
2021/04/05 04:40:36;;;;;;;11.68;1.70;;;29.20;12.00;;;;;;5095814;28;20069;-61
2021/04/05 04:43:06;;;;;;;7.88;1.15;;;29.20;12.00;;;;;;5096178;28;20079;-60
2021/04/05 04:45:33;;;;;;;17.40;1.40;;;29.10;12.00;;;;;;5097051;28;20548;-60
2021/04/05 04:48:00;;;;;;;13.63;1.60;;;29.10;12.00;;;;;;5099564;28;20083;-61
2021/04/05 04:50:28;;;;;;;13.23;2.03;;;29.10;12.20;;;;;;5099572;28;20100;-60
2021/04/05 04:52:55;;;;;;;12.48;2.20;;;29.00;12.30;;;;;;5097780;28;20135;-61
2021/04/05 04:55:23;;;;;;;20.02;2.13;;;29.10;36.60;;;;;;5100153;28;20052;-57
2021/04/05 04:57:54;;;;;;;25.70;2.03;;;28.80;25.80;;;;;;5098439;28;20428;-58
2021/04/05 05:00:22;;;;;;;16.63;1.80;;;28.90;25.50;;;;;;5100019;28;20408;-55
2021/04/05 05:02:50;;;;;;;24.58;2.55;;;28.70;12.00;;;;;;5102916;28;20072;-56
2021/04/05 05:05:18;;;;;;;19.98;2.00;;;28.60;12.10;;;;;;5098160;28;20080;-53
2021/04/05 05:07:45;;;;;;;14.55;2.70;;;28.60;12.50;;;;;;5096821;28;20463;-54
2021/04/05 05:10:13;;;;;;;14.38;2.08;;;28.60;12.40;;;;;;5094717;28;20537;-52
2021/04/05 05:12:41;;;;;;;17.08;1.70;;;28.50;12.00;;;;;;5096742;28;20641;-51
2021/04/05 05:15:10;;;;;;;15.95;1.85;;;28.50;12.50;;;;;;5095634;28;20072;-52
2021/04/05 05:17:47;;;;;;;14.82;1.88;;;28.30;24.60;;;;;;5100524;28;20024;-54
2021/04/05 05:20:15;;;;;;;20.20;2.28;;;28.40;24.40;;;;;;5098990;28;20506;-52
2021/04/05 05:22:47;;;;;;;17.08;1.85;;;28.30;12.60;;;;;;5098539;28;20597;-53
2021/04/05 05:25:18;;;;;;;16.75;1.85;;;28.20;12.70;;;;;;5078872;28;20086;-56
2021/04/05 05:28:02;;;;;;;10.30;1.85;;;28.10;12.80;;;;;;5097704;28;20072;-57
2021/04/05 05:30:29;;;;;;;16.17;1.90;;;28.10;12.70;;;;;;5099047;28;20088;-51
2021/04/05 05:32:59;;;;;;;9.82;1.48;;;28.00;12.70;;;;;;5092217;28;20088;-53
2021/04/05 05:35:27;;;;;;;9.40;1.30;;;28.00;12.90;;;;;;5091156;28;20083;-54
2021/04/05 05:38:03;;;;;;;9.95;1.50;;;27.90;12.90;;;;;;5096754;28;21011;-54
2021/04/05 05:40:32;;;;;;;8.13;1.65;;;27.80;12.70;;;;;;5093462;28;20445;-53
2021/04/05 05:43:22;;;;;;;9.32;1.52;;;27.80;12.70;;;;;;5094783;28;20163;-51
2021/04/05 05:46:08;;;;;;;10.35;1.20;;;27.80;27.50;;;;;;5093202;28;20155;-54
2021/04/05 05:49:08;;;;;;;8.35;1.60;;;27.60;25.30;;;;;;5098997;28;20082;-55
2021/04/05 05:51:47;;;;;;;9.25;1.40;;;27.60;13.30;;;;;;5096996;28;20072;-54
2021/04/05 05:54:42;;;;;;;10.07;1.50;;;27.60;13.20;;;;;;5091883;28;20104;-54
2021/04/05 05:57:21;;;;;;;5.97;1.20;;;27.70;13.90;;;;;;5092457;28;20608;-52
2021/04/05 06:00:14;;;;;;;6.22;1.40;;;27.50;13.90;;;;;;5095540;28;20072;-52
2021/04/05 06:02:55;;;;;;;4.50;1.00;;;27.40;13.70;;;;;;5090835;28;20112;-51
2021/04/05 06:05:46;;;;;;;8.57;1.20;;;27.40;13.60;;;;;;5091699;28;20076;-54
2021/04/05 06:08:51;;;;;;;8.30;1.17;;;27.30;25.30;;;;;;5089832;28;20072;-51
2021/04/05 06:11:55;;;;;;;12.15;1.25;;;27.20;14.00;;;;;;5032042;28;20275;-49
2021/04/05 06:14:33;;;;;;;9.65;1.70;;;27.20;14.40;;;;;;5035606;28;20581;-52
2021/04/05 06:17:37;;;;;;;8.90;1.30;;;27.10;14.30;;;;;;5082550;28;20088;-53
2021/04/05 06:20:14;;;;;;;7.15;1.60;;;27.10;13.70;;;;;;5096477;28;20075;-55
2021/04/05 06:22:40;;;;;;;;;;;27.00;13.80;;;;;;5095058;28;20075;-53
2021/04/05 06:25:22;;;;;;;3.80;1.20;;;27.10;13.30;;;;;;5097748;28;20057;-52
2021/04/05 06:28:10;;;;;;;9.30;1.40;;;27.10;30.10;;;;;;5097687;28;20031;-51
2021/04/05 06:30:45;;;;;;;5.82;1.05;;;27.20;13.20;;;;;;5092454;28;20452;-50
2021/04/05 06:33:23;;;;;;;5.85;1.70;;;26.90;13.40;;;;;;5091617;28;20032;-57
2021/04/05 06:36:23;;;;;;;7.45;1.20;;;26.90;22.10;;;;;;5092141;28;20020;-56
2021/04/05 06:39:15;;;;;;;6.55;1.73;;;26.90;14.50;;;;;;5093097;28;20082;-52
2021/04/05 06:41:54;;;;;;;12.90;2.13;;;26.60;29.90;;;;;;5082562;28;20076;-52
2021/04/05 06:44:42;;;;;;;4.57;1.27;;;26.70;15.40;;;;;;5092838;28;20108;-55
2021/04/05 06:47:29;;;;;;;9.05;1.65;;;26.50;14.70;;;;;;5094903;28;20543;-54
2021/04/05 06:50:06;;;;;;;10.43;1.20;;;26.40;15.00;;;;;;5096467;28;20139;-55
2021/04/05 06:52:51;;;;;;;19.35;1.80;;;26.30;15.60;;;;;;5098094;28;20107;-55
2021/04/05 06:55:27;;;;;;;12.85;1.60;;;26.30;14.60;;;;;;5093340;28;20092;-51
2021/04/05 06:58:17;;;;;;;9.20;1.43;;;26.30;34.90;;;;;;5097562;28;20040;-53
2021/04/05 07:01:01;;;;;;;10.07;1.30;;;26.30;13.30;;;;;;5092499;28;20065;-51
2021/04/05 07:03:56;;;;;;;10.35;1.42;;;26.50;12.50;;;;;;5098373;28;20087;-52
2021/04/05 07:06:48;;;;;;;6.57;1.23;;;26.60;12.50;;;;;;5095708;28;20068;-53
2021/04/05 07:09:23;;;;;;;13.40;1.15;;;26.60;12.40;;;;;;5092913;28;20573;-54
2021/04/05 07:11:56;;;;;;;11.80;1.40;;;26.70;12.80;;;;;;5091752;28;20139;-53
2021/04/05 07:14:47;;;;;;;24.58;1.70;;;26.10;12.00;;;;;;5092816;28;20108;-51
2021/04/05 07:17:46;;;;;;;12.43;1.42;;;27.10;11.90;;;;;;5096453;28;21503;-54
2021/04/05 07:20:28;;;;;;;13.25;1.40;;;27.10;12.30;;;;;;5094447;28;20080;-52
2021/04/05 07:23:19;;;;;;;11.50;1.00;;;27.10;26.70;;;;;;5100641;28;20027;-53
2021/04/05 07:26:07;;;;;;;7.95;1.05;;;27.10;33.20;;;;;;5091891;28;20036;-52
2021/04/05 07:28:49;;;;;;;2.80;1.00;;;27.00;12.20;;;;;;5093170;28;20077;-56
2021/04/05 07:31:43;;;;;;;10.48;1.40;;;27.00;12.10;;;;;;5096569;28;20155;-52
2021/04/05 07:34:31;;;;;;;8.90;1.42;;;27.00;12.50;;;;;;5093762;28;20088;-52
2021/04/05 07:37:34;;;;;;;4.63;1.13;;;27.20;33.00;;;;;;5093695;28;20161;-54
2021/04/05 07:40:12;;;;;;;7.35;0.90;;;27.10;12.40;;;;;;5074716;28;20534;-51
2021/04/05 07:42:49;;;;;;;13.18;1.55;;;27.20;12.30;;;;;;5091348;28;20080;-53
2021/04/05 07:45:33;;;;;;;;;;;27.30;11.70;;;;;;5097907;28;20068;-51
2021/04/05 07:48:26;;;;;;;20.48;2.20;;;27.50;11.70;;;;;;5095501;28;19960;-51
2021/04/05 07:51:13;;;;;;;35.58;2.67;;;27.50;11.60;;;;;;5096197;28;20410;-53
2021/04/05 07:53:51;;;;;;;31.33;2.53;;;27.50;12.10;;;;;;5091507;28;20100;-51
2021/04/05 07:56:34;;;;;;;16.80;2.42;;;27.70;33.60;;;;;;5090362;28;20115;-52
2021/04/05 07:59:44;;;;;;;17.58;1.35;;;27.40;15.80;;;;;;5093940;28;20039;-56
2021/04/05 08:02:17;;;;;;;13.63;1.40;;;27.60;12.00;;;;;;5067944;28;20537;-52
2021/04/05 08:05:11;;;;;;;7.25;0.93;;;27.60;12.20;;;;;;5087405;28;20092;-52
2021/04/05 08:07:53;;;;;;;18.17;1.55;;;27.50;26.80;;;;;;5096513;28;20087;-54
2021/04/05 08:10:29;;;;;;;12.32;1.50;;;27.50;34.20;;;;;;5091953;28;20440;-53
2021/04/05 08:13:22;;;;;;;13.48;1.50;;;27.40;12.40;;;;;;5088102;28;20119;-52
2021/04/05 08:16:18;;;;;;;15.27;1.60;;;27.40;15.50;;;;;;5093269;28;20187;-52
2021/04/05 08:19:13;;;;;;;15.02;1.60;;;27.40;13.10;;;;;;5097200;28;20072;-49
2021/04/05 08:21:54;;;;;;;19.27;2.47;;;27.40;13.10;;;;;;5089870;28;20107;-51
2021/04/05 08:24:42;;;;;;;15.35;1.70;;;27.30;13.30;;;;;;5093341;28;20436;-54
2021/04/05 08:27:19;;;;;;;4.30;1.23;;;27.30;13.40;;;;;;5094704;28;20137;-55
2021/04/05 08:30:05;;;;;;;18.73;2.20;;;27.20;13.20;;;;;;5094210;28;20146;-51
2021/04/05 08:32:31;;;;;;;5.18;0.95;;;;;;;;;;5089969;28;20091;-53
2021/04/05 08:35:16;;;;;;;4.30;1.10;;;27.20;38.90;;;;;;5093764;28;20039;-52
2021/04/05 08:38:04;;;;;;;5.28;1.33;;;27.10;13.80;;;;;;5091871;28;20079;-54
2021/04/05 08:40:37;;;;;;;5.22;1.30;;;27.10;13.80;;;;;;5090972;28;20111;-52
2021/04/05 08:43:49;;;;;;;6.18;1.10;;;27.10;13.90;;;;;;5091330;28;20077;-52
2021/04/05 08:46:19;;;;;;;4.07;1.17;;;27.10;14.00;;;;;;5030804;28;20220;-51
2021/04/05 08:48:52;;;;;;;30.73;1.63;;;27.00;14.20;;;;;;5036276;28;20491;-53
2021/04/05 08:51:32;;;;;;;4.75;1.25;;;26.80;34.60;;;;;;5067390;28;20611;-52
2021/04/05 08:54:02;;;;;;;5.28;1.20;;;27.00;14.20;;;;;;5097319;28;20132;-53
2021/04/05 08:56:37;;;;;;;8.98;1.40;;;27.00;14.10;;;;;;5095485;28;20072;-52
2021/04/05 08:59:08;;;;;;;6.78;1.17;;;27.10;14.00;;;;;;5096801;28;20077;-53
2021/04/05 09:01:49;;;;;;;11.52;1.70;;;27.20;13.90;;;;;;5097430;28;20104;-55
2021/04/05 09:04:23;;;;;;;3.00;1.30;;;27.20;13.70;;;;;;5092194;28;20091;-53
2021/04/05 09:07:05;;;;;;;6.80;1.35;;;27.10;14.10;;;;;;5095372;28;20069;-55
2021/04/05 09:09:35;;;;;;;2.20;1.00;;;27.00;14.20;;;;;;5094026;28;20187;-54
2021/04/05 09:12:04;;;;;;;2.13;1.13;;;27.00;14.30;;;;;;5097050;28;20111;-53
2021/04/05 09:14:39;;;;;;;4.90;1.20;;;26.90;14.30;;;;;;5096167;28;20100;-52
2021/04/05 09:17:33;;;;;;;10.13;2.42;;;26.90;14.40;;;;;;5097787;28;20159;-55
2021/04/05 09:20:15;;;;;;;6.03;1.40;;;26.80;14.30;;;;;;5093758;28;20369;-54
2021/04/05 09:23:18;;;;;;;4.28;1.38;;;26.80;14.80;;;;;;5095595;28;20073;-52
2021/04/05 09:25:50;;;;;;;4.50;1.60;;;26.70;14.90;;;;;;5094945;28;20076;-51
2021/04/05 09:28:52;;;;;;;5.85;1.40;;;26.70;14.90;;;;;;5095671;28;20084;-55
2021/04/05 09:31:31;;;;;;;2.88;1.42;;;26.60;14.70;;;;;;5078223;28;20478;-55
2021/04/05 09:34:06;;;;;;;6.03;1.20;;;26.60;38.90;;;;;;5094097;28;20064;-54
2021/04/05 09:37:01;;;;;;;4.43;1.10;;;26.60;15.20;;;;;;5098329;28;20064;-56
2021/04/05 09:39:33;;;;;;;8.85;1.80;;;26.50;15.40;;;;;;5095993;28;20561;-52
2021/04/05 09:42:37;;;;;;;18.73;1.55;;;26.50;15.00;;;;;;5098713;28;20079;-56
2021/04/05 09:45:39;;;;;;;12.15;1.48;;;26.70;14.60;;;;;;5094963;28;20072;-55
2021/04/05 09:48:05;;;;;;;17.70;1.75;;;26.90;14.30;;;;;;5067762;28;20080;-53
2021/04/05 09:51:06;;;;;;;15.98;1.42;;;27.00;14.60;;;;;;5094124;28;20084;-53
2021/04/05 09:53:53;;;;;;;7.88;1.55;;;27.10;14.30;;;;;;5093232;28;20088;-52
2021/04/05 09:56:24;;;;;;;;;;;27.30;13.70;;;;;;5094963;28;20116;-52
2021/04/05 09:59:16;;;;;;;6.53;1.60;;;27.20;14.10;;;;;;5094742;28;19956;-51
2021/04/05 10:01:51;;;;;;;8.13;1.55;;;27.20;14.20;;;;;;5097028;28;20072;-53
2021/04/05 10:04:27;;;;;;;7.13;1.60;;;27.20;14.10;;;;;;5097487;28;20083;-53
2021/04/05 10:06:57;;;;;;;13.65;1.55;;;27.30;14.20;;;;;;5092261;28;20080;-54
2021/04/05 10:09:30;;;;;;;7.30;2.00;;;27.20;14.10;;;;;;5096746;28;20088;-55
2021/04/05 10:12:02;;;;;;;9.20;1.60;;;27.30;14.00;;;;;;5099403;28;20111;-51
2021/04/05 10:14:29;;;;;;;5.82;1.63;;;27.40;14.00;;;;;;5093208;28;20104;-54
2021/04/05 10:16:57;;;;;;;6.32;1.80;;;27.40;14.10;;;;;;5095789;28;20165;-53
2021/04/05 10:19:36;;;;;;;9.15;1.67;;;27.30;14.00;;;;;;5096022;28;20091;-52
2021/04/05 10:22:07;;;;;;;4.85;1.40;;;27.40;14.10;;;;;;5094355;28;20072;-54
2021/04/05 10:24:39;;;;;;;5.78;1.50;;;27.30;14.20;;;;;;5097200;28;20532;-53
2021/04/05 10:27:07;;;;;;;3.80;1.60;;;27.30;14.20;;;;;;5096668;28;20593;-55
2021/04/05 10:29:35;;;;;;;4.20;1.50;;;27.40;14.30;;;;;;5096719;28;20543;-53
2021/04/05 10:32:05;;;;;;;7.55;1.27;;;27.40;14.30;;;;;;5097327;28;20529;-55
2021/04/05 10:34:35;;;;;;;5.72;1.23;;;27.30;14.50;;;;;;5092551;28;20483;-54
2021/04/05 10:37:15;;;;;;;7.45;1.45;;;27.20;14.40;;;;;;5094665;28;20065;-55
2021/04/05 10:39:50;;;;;;;6.00;1.50;;;27.20;14.50;;;;;;5092497;28;20562;-53
2021/04/05 10:42:27;;;;;;;5.70;1.35;;;27.20;14.60;;;;;;5096792;28;20075;-55
2021/04/05 10:45:03;;;;;;;4.65;1.67;;;27.10;21.60;;;;;;5087452;28;22049;-51
2021/04/05 10:48:07;;;;;;;4.85;1.27;;;27.00;14.30;;;;;;5095182;28;20080;-54
2021/04/05 10:50:46;;;;;;;5.05;1.10;;;27.00;14.70;;;;;;5080693;28;20076;-53
2021/04/05 10:53:17;;;;;;;2.20;1.30;;;27.00;14.70;;;;;;5092732;28;20923;-56
2021/04/05 10:55:52;;;;;;;2.50;1.20;;;27.40;29.60;;;;;;5095490;28;20085;-52
2021/04/05 10:58:25;;;;;;;4.07;1.23;;;27.00;14.40;;;;;;5097723;28;20545;-54
2021/04/05 11:00:55;;;;;;;4.32;1.10;;;27.00;14.80;;;;;;5094407;28;20094;-52
2021/04/05 11:03:26;;;;;;;2.92;1.30;;;27.10;14.80;;;;;;5093747;28;20073;-52
2021/04/05 11:05:58;;;;;;;4.32;1.30;;;27.10;14.80;;;;;;5094676;28;20159;-50
2021/04/05 11:08:35;;;;;;;3.85;1.10;;;27.10;14.90;;;;;;5091427;28;20099;-50
2021/04/05 11:11:14;;;;;;;4.28;1.20;;;27.00;14.90;;;;;;5092539;28;20146;-51
2021/04/05 11:13:48;;;;;;;6.82;1.10;;;26.90;43.30;;;;;;5093117;28;20051;-50
2021/04/05 11:16:18;;;;;;;4.45;1.10;;;26.90;14.40;;;;;;5096263;28;20386;-49
2021/04/05 11:18:53;;;;;;;4.95;1.50;;;26.90;14.90;;;;;;5092250;28;20085;-50
2021/04/05 11:21:32;;;;;;;6.40;1.20;;;26.90;15.00;;;;;;5092385;28;20584;-50
2021/04/05 11:24:01;;;;;;;6.28;1.40;;;26.90;15.10;;;;;;5097125;28;20076;-49
2021/04/05 11:26:33;;;;;;;5.25;2.53;;;26.80;15.20;;;;;;5094184;28;20082;-50
2021/04/05 11:29:05;;;;;;;6.93;2.65;;;26.70;15.20;;;;;;5092543;28;20073;-49
2021/04/05 11:31:41;;;;;;;5.43;2.00;;;26.80;15.30;;;;;;5090099;28;20077;-51
2021/04/05 11:34:08;;;;;;;4.30;1.40;;;26.60;15.90;;;;;;5077475;28;20421;-50
2021/04/05 11:36:47;;;;;;;5.75;1.40;;;26.50;15.70;;;;;;5094815;28;20170;-52
2021/04/05 11:39:17;;;;;;;3.90;1.40;;;26.30;16.20;;;;;;5095621;28;20072;-53
2021/04/05 11:41:52;;;;;;;5.10;1.42;;;26.10;16.70;;;;;;5090467;28;20087;-51
2021/04/05 11:44:22;;;;;;;6.47;2.10;;;26.00;17.00;;;;;;5091856;28;20418;-53
2021/04/05 11:46:52;;;;;;;3.60;1.95;;;25.90;17.00;;;;;;5093112;28;20064;-56
2021/04/05 11:49:19;;;;;;;9.57;2.38;;;25.90;17.00;;;;;;5097454;28;20544;-53
2021/04/05 11:51:50;;;;;;;4.90;2.22;;;25.80;17.20;;;;;;5098809;28;20159;-50
2021/04/05 11:54:36;;;;;;;6.97;2.13;;;25.70;17.40;;;;;;5094485;28;20108;-51
2021/04/05 11:57:09;;;;;;;4.70;2.45;;;25.60;17.30;;;;;;5091153;28;20102;-54
2021/04/05 11:59:41;;;;;;;4.22;2.25;;;25.60;17.50;;;;;;5092486;28;20080;-52
2021/04/05 12:02:21;;;;;;;3.65;2.53;;;25.50;17.70;;;;;;5092651;28;20092;-54
2021/04/05 12:04:54;;;;;;;8.60;3.10;;;25.30;17.80;;;;;;5079537;28;20103;-53
2021/04/05 12:07:25;;;;;;;9.75;2.85;;;25.20;18.20;;;;;;5095935;28;20130;-55
2021/04/05 12:10:00;;;;;;;7.03;2.58;;;25.10;18.90;;;;;;5092873;28;20065;-53
2021/04/05 12:12:47;;;;;;;5.70;1.92;;;24.90;19.20;;;;;;5094031;28;20119;-55
2021/04/05 12:15:19;;;;;;;2.72;1.85;;;24.90;18.80;;;;;;5096099;28;20509;-52
2021/04/05 12:17:54;;;;;;;10.13;2.25;;;24.70;19.70;;;;;;5090834;28;20099;-52
2021/04/05 12:20:27;;;;;;;3.53;1.80;;;24.60;19.70;;;;;;5094612;28;20493;-51
2021/04/05 12:23:03;;;;;;;7.47;1.50;;;24.60;19.50;;;;;;5097048;28;20163;-52
2021/04/05 12:25:34;;;;;;;3.85;1.80;;;24.40;19.50;;;;;;5097878;28;20072;-51
2021/04/05 12:28:09;;;;;;;5.53;1.60;;;24.30;20.30;;;;;;5095698;28;20129;-51
2021/04/05 12:30:38;;;;;;;4.68;1.88;;;24.30;20.00;;;;;;5095521;28;20126;-51
2021/04/05 12:33:06;;;;;;;11.90;1.88;;;24.20;19.90;;;;;;5094856;28;20077;-52
2021/04/05 12:35:33;;;;;;;2.53;1.60;;;24.20;20.40;;;;;;5098799;28;20168;-52
2021/04/05 12:38:05;;;;;;;4.45;1.70;;;24.10;20.10;;;;;;5098203;28;20077;-53
2021/04/05 12:40:38;;;;;;;8.35;1.88;;;24.10;20.20;;;;;;5095721;28;20437;-55
2021/04/05 12:43:16;;;;;;;3.40;1.90;;;24.00;20.00;;;;;;5075378;28;20076;-55
2021/04/05 12:45:53;;;;;;;9.98;2.00;;;24.00;20.30;;;;;;5093019;28;20413;-52
2021/04/05 12:48:28;;;;;;;10.50;2.17;;;23.90;21.20;;;;;;5097595;28;20073;-54
2021/04/05 12:51:02;;;;;;;5.28;1.65;;;23.80;20.50;;;;;;5098268;28;20415;-54
2021/04/05 12:53:30;;;;;;;5.45;1.77;;;23.80;20.90;;;;;;5095363;28;20466;-54
2021/04/05 12:55:59;;;;;;;2.58;1.40;;;23.70;21.80;;;;;;5094492;28;20081;-56
2021/04/05 12:58:36;;;;;;;7.35;1.77;;;23.60;21.70;;;;;;5095850;28;20086;-53
2021/04/05 13:01:04;;;;;;;10.10;2.28;;;23.50;21.30;;;;;;5077492;28;20424;-50
2021/04/05 13:03:35;;;;;;;17.27;2.38;;;23.50;21.70;;;;;;5099492;28;20084;-51
2021/04/05 13:06:08;;;;;;;12.60;2.13;;;23.30;21.30;;;;;;5097593;28;20073;-49
2021/04/05 13:08:46;;;;;;;8.68;1.75;;;23.20;22.30;;;;;;5098332;28;20073;-54
2021/04/05 13:11:17;;;;;;;7.40;2.08;;;23.10;21.80;;;;;;5093677;28;20104;-51
2021/04/05 13:13:49;;;;;;;7.50;2.05;;;23.00;22.10;;;;;;5095735;28;20092;-52
2021/04/05 13:16:29;;;;;;;6.93;2.10;;;22.90;22.40;;;;;;5095341;28;20064;-55
2021/04/05 13:19:00;;;;;;;7.75;2.38;;;22.90;22.60;;;;;;5099863;28;20072;-52
2021/04/05 13:21:33;;;;;;;7.95;1.90;;;22.80;21.90;;;;;;5094312;28;20068;-51
2021/04/05 13:24:02;;;;;;;11.82;1.83;;;22.80;22.80;;;;;;5095250;28;20075;-52
2021/04/05 13:26:40;;;;;;;10.13;2.20;;;22.70;22.90;;;;;;5096642;28;20637;-54